createdAt,value
2023-01-27T00:03:39.100Z,101032.22
2023-01-27T00:07:45.839Z,101043.41
2023-01-27T00:12:05.973Z,101037.53
2023-01-27T00:16:08.079Z,101035.78
2023-01-27T00:20:11.182Z,101043.47
2023-01-27T00:24:32.045Z,101040.91
2023-01-27T00:28:38.622Z,101047.78
2023-01-27T00:32:59.101Z,101040.94
2023-01-27T00:37:01.003Z,101049.59
2023-01-27T00:41:21.327Z,101058.19
2023-01-27T00:45:41.743Z,101059.88
2023-01-27T00:49:43.647Z,101056.44
2023-01-27T00:53:46.129Z,101058.19
2023-01-27T00:57:47.883Z,101056.41
2023-01-27T01:01:49.930Z,101053.00
2023-01-27T01:05:52.548Z,101056.34
2023-01-27T01:09:54.325Z,101057.16
2023-01-27T01:13:57.265Z,101052.81
2023-01-27T01:17:59.247Z,101050.25
2023-01-27T01:22:00.894Z,101046.78
2023-01-27T01:26:02.929Z,101052.78
2023-01-27T01:30:05.096Z,101053.69
2023-01-27T01:34:07.321Z,101050.31
2023-01-27T01:38:09.884Z,101046.88
2023-01-27T01:42:11.644Z,101045.19
2023-01-27T01:46:14.092Z,101049.41
2023-01-27T01:50:16.232Z,101047.81
2023-01-27T01:54:38.665Z,101055.53
2023-01-27T02:02:46.700Z,101050.38
2023-01-27T02:07:11.176Z,101044.31
2023-01-27T02:11:13.368Z,101034.88
2023-01-27T02:15:15.935Z,101040.91
2023-01-27T02:19:53.814Z,101034.09
2023-01-27T02:24:01.556Z,101040.16
2023-01-27T02:28:05.185Z,101040.88
2023-01-27T02:32:06.953Z,101044.38
2023-01-27T02:36:13.343Z,101039.25
2023-01-27T02:40:17.265Z,101034.88
2023-01-27T02:44:19.440Z,101034.91
2023-01-27T02:48:21.411Z,101036.63
2023-01-27T02:52:23.475Z,101040.94
2023-01-27T02:56:26.955Z,101045.19
2023-01-27T03:00:31.084Z,101034.94
2023-01-27T03:04:33.195Z,101030.69
2023-01-27T03:08:35.205Z,101035.88
2023-01-27T03:12:39.937Z,101024.53
2023-01-27T03:17:00.402Z,101031.34
2023-01-27T03:21:04.925Z,101046.03
2023-01-27T03:25:07.570Z,101036.59
2023-01-27T03:29:28.883Z,101041.81
2023-01-27T03:33:31.462Z,101050.19
2023-01-27T03:37:55.995Z,101051.09
2023-01-27T03:42:16.384Z,101045.91
2023-01-27T03:46:19.086Z,101038.22
2023-01-27T03:50:37.364Z,101038.25
2023-01-27T03:54:39.371Z,101037.38
2023-01-27T03:58:42.102Z,101039.19
2023-01-27T04:03:02.801Z,101038.41
2023-01-27T04:07:04.812Z,101043.56
2023-01-27T04:11:25.498Z,101038.47
2023-01-27T04:15:27.481Z,101041.06
2023-01-27T04:19:30.388Z,101038.41
2023-01-27T04:23:32.323Z,101038.41
2023-01-27T04:27:34.505Z,101041.94
2023-01-27T04:31:36.513Z,101043.59
2023-01-27T04:35:38.851Z,101039.41
2023-01-27T04:39:41.932Z,101038.50
2023-01-27T04:43:43.896Z,101036.91
2023-01-27T04:47:45.601Z,101022.25
2023-01-27T04:51:47.811Z,101039.47
2023-01-27T04:55:50.819Z,101041.16
2023-01-27T04:59:52.413Z,101052.41
2023-01-27T05:03:55.439Z,101054.00
2023-01-27T05:07:57.407Z,101050.63
2023-01-27T05:11:59.329Z,101048.06
2023-01-27T05:16:08.540Z,101057.63
2023-01-27T05:20:10.858Z,101043.91
2023-01-27T05:24:12.926Z,101047.41
2023-01-27T05:28:14.995Z,101043.22
2023-01-27T05:32:16.899Z,101045.84
2023-01-27T05:36:21.495Z,101052.78
2023-01-27T05:40:23.213Z,101049.38
2023-01-27T05:44:25.206Z,101048.56
2023-01-27T05:48:27.293Z,101046.88
2023-01-27T05:52:29.003Z,101040.84
2023-01-27T05:56:30.997Z,101042.59
2023-01-27T06:00:33.315Z,101042.56
2023-01-27T06:04:35.422Z,101039.19
2023-01-27T06:08:40.021Z,101047.72
2023-01-27T06:12:41.666Z,101058.91
2023-01-27T06:16:44.152Z,101055.47
2023-01-27T06:20:46.796Z,101055.56
2023-01-27T06:24:48.488Z,101047.88
2023-01-27T06:28:50.497Z,101059.78
2023-01-27T06:32:52.548Z,101067.44
2023-01-27T06:36:54.484Z,101068.19
2023-01-27T06:40:56.538Z,101069.09
2023-01-27T06:44:58.222Z,101088.88
2023-01-27T06:49:00.162Z,101088.00
2023-01-27T06:53:05.210Z,101087.06
2023-01-27T06:57:09.480Z,101088.78
2023-01-27T07:01:11.912Z,101090.38
2023-01-27T07:05:14.014Z,101103.22
2023-01-27T07:09:15.699Z,101115.28
2023-01-27T07:13:18.827Z,101110.88
2023-01-27T07:17:20.870Z,101117.81
2023-01-27T07:21:22.999Z,101119.41
2023-01-27T07:25:25.722Z,101125.41
2023-01-27T07:29:27.865Z,101134.88
2023-01-27T07:33:29.851Z,101145.16
2023-01-27T07:37:32.104Z,101145.09
2023-01-27T07:41:34.536Z,101150.16
2023-01-27T07:45:37.286Z,101157.81
2023-01-27T07:49:39.265Z,101170.72
2023-01-27T07:53:41.923Z,101169.78
2023-01-27T07:57:43.881Z,101190.44
2023-01-27T08:01:48.118Z,101195.56
2023-01-27T08:05:50.900Z,101195.41
2023-01-27T08:09:54.881Z,101196.22
2023-01-27T08:13:56.849Z,101202.13
2023-01-27T08:17:59.571Z,101195.09
2023-01-27T08:22:01.548Z,101201.09
2023-01-27T08:26:06.428Z,101208.56
2023-01-27T08:30:09.216Z,101209.34
2023-01-27T08:34:12.025Z,101206.25
2023-01-27T08:38:16.799Z,101222.41
2023-01-27T08:42:18.954Z,101224.84
2023-01-27T08:46:21.302Z,101224.81
2023-01-27T08:50:23.334Z,101223.06
2023-01-27T08:54:25.370Z,101225.59
2023-01-27T08:58:27.512Z,101231.63
2023-01-27T09:02:29.601Z,101235.16
2023-01-27T09:06:31.693Z,101232.72
2023-01-27T09:10:37.886Z,101240.34
2023-01-27T09:14:40.254Z,101247.25
2023-01-27T09:18:42.497Z,101243.03
2023-01-27T09:22:44.562Z,101242.97
2023-01-27T09:26:46.747Z,101233.28
2023-01-27T09:30:49.751Z,101236.00
2023-01-27T09:34:51.885Z,101233.06
2023-01-27T09:39:00.231Z,101228.72
2023-01-27T09:43:21.001Z,101238.69
2023-01-27T09:47:47.615Z,101230.81
2023-01-27T09:52:08.343Z,101229.66
2023-01-27T09:56:38.548Z,101244.25
2023-01-27T10:01:18.727Z,101239.25
2023-01-27T10:05:33.271Z,101244.94
2023-01-27T10:10:09.299Z,101244.84
2023-01-27T10:14:39.535Z,101237.59
2023-01-27T10:19:33.814Z,101240.75
2023-01-27T10:24:14.990Z,101252.75
2023-01-27T10:28:22.580Z,101258.19
2023-01-27T10:32:34.879Z,101252.94
2023-01-27T10:36:55.998Z,101253.13
2023-01-27T10:41:16.949Z,101270.66
2023-01-27T10:45:27.816Z,101268.22
2023-01-27T10:49:38.198Z,101271.72
2023-01-27T10:53:57.508Z,101268.53
2023-01-27T10:58:25.637Z,101278.97
2023-01-27T11:02:45.752Z,101279.84
2023-01-27T11:06:49.972Z,101276.34
2023-01-27T11:11:24.184Z,101268.28
2023-01-27T11:15:34.352Z,101266.41
2023-01-27T11:19:55.578Z,101264.81
2023-01-27T11:24:06.210Z,101251.78
2023-01-27T11:28:30.079Z,101249.00
2023-01-27T11:32:53.445Z,101248.13
2023-01-27T11:36:55.567Z,101247.25
2023-01-27T11:40:58.353Z,101238.63
2023-01-27T11:45:01.653Z,101238.84
2023-01-27T11:49:04.320Z,101232.66
2023-01-27T11:53:22.004Z,101233.44
2023-01-27T11:57:26.173Z,101243.59
2023-01-27T12:02:15.497Z,101242.03
2023-01-27T12:06:29.663Z,101236.53
2023-01-27T12:10:31.644Z,101236.75
2023-01-27T12:14:33.682Z,101230.16
2023-01-27T12:18:47.220Z,101228.06
2023-01-27T12:22:54.396Z,101229.84
2023-01-27T12:26:57.379Z,101235.00
2023-01-27T12:31:12.505Z,101224.03
2023-01-27T12:35:32.797Z,101219.69
2023-01-27T12:39:50.330Z,101222.28
2023-01-27T12:43:57.227Z,101233.28
2023-01-27T12:48:15.948Z,101233.03
2023-01-27T12:52:18.986Z,101240.03
2023-01-27T12:56:23.709Z,101245.44
2023-01-27T13:00:26.246Z,101242.09
2023-01-27T13:04:29.035Z,101235.19
2023-01-27T13:08:33.488Z,101237.88
2023-01-27T13:12:49.841Z,101232.09
2023-01-27T13:16:54.590Z,101227.53
2023-01-27T13:21:07.466Z,101221.38
2023-01-27T13:25:17.664Z,101221.44
2023-01-27T13:29:26.880Z,101228.72
2023-01-27T13:33:50.127Z,101217.47
2023-01-27T13:38:19.791Z,101226.28
2023-01-27T13:42:24.628Z,101223.00
2023-01-27T13:46:30.658Z,101229.97
2023-01-27T13:50:37.845Z,101216.25
2023-01-27T13:54:39.844Z,101218.72
2023-01-27T13:58:57.493Z,101213.56
2023-01-27T14:03:24.511Z,101222.31
2023-01-27T14:07:29.823Z,101219.69
2023-01-27T14:11:43.011Z,101221.41
2023-01-27T14:16:16.389Z,101224.84
2023-01-27T14:20:24.865Z,101217.88
2023-01-27T14:24:29.560Z,101215.63
2023-01-27T14:29:12.558Z,101214.00
2023-01-27T14:33:27.611Z,101207.97
2023-01-27T14:37:32.723Z,101210.59
2023-01-27T14:41:44.079Z,101208.72
2023-01-27T14:45:53.685Z,101208.56
2023-01-27T14:50:04.595Z,101212.00
2023-01-27T14:54:27.570Z,101202.84
2023-01-27T14:58:39.651Z,101205.34
2023-01-27T15:02:51.093Z,101208.81
2023-01-27T15:07:05.323Z,101207.09
2023-01-27T15:11:26.797Z,101207.94
2023-01-27T15:15:51.571Z,101212.41
2023-01-27T15:20:25.186Z,101199.47
2023-01-27T15:24:35.920Z,101204.69
2023-01-27T15:28:41.488Z,101205.56
2023-01-27T15:32:43.523Z,101218.41
2023-01-27T15:37:09.585Z,101220.19
2023-01-27T15:41:14.852Z,101219.34
2023-01-27T15:45:33.816Z,101225.31
2023-01-27T15:49:43.906Z,101221.16
2023-01-27T15:53:50.941Z,101220.22
2023-01-27T15:58:02.880Z,101231.41
2023-01-27T16:02:17.335Z,101225.25
2023-01-27T16:06:25.106Z,101228.88
2023-01-27T16:10:31.496Z,101227.16
2023-01-27T16:14:44.474Z,101222.84
2023-01-27T16:18:57.493Z,101229.66
2023-01-27T16:23:07.197Z,101228.91
2023-01-27T16:27:29.402Z,101239.31
2023-01-27T16:31:32.513Z,101234.03
2023-01-27T16:35:44.136Z,101241.78
2023-01-27T16:40:01.103Z,101243.53
2023-01-27T16:44:22.319Z,101250.47
2023-01-27T16:48:30.086Z,101252.22
2023-01-27T16:52:41.826Z,101253.06
2023-01-27T16:56:49.723Z,101250.63
2023-01-27T17:00:52.989Z,101245.34
2023-01-27T17:04:59.095Z,101226.44
2023-01-27T17:09:02.457Z,101243.69
2023-01-27T17:13:04.400Z,101234.22
2023-01-27T17:17:19.356Z,101224.78
2023-01-27T17:21:39.105Z,101230.78
2023-01-27T17:25:41.717Z,101234.16
2023-01-27T17:29:46.337Z,101227.25
2023-01-27T17:33:50.564Z,101222.97
2023-01-27T17:38:05.234Z,101226.50
2023-01-27T17:42:08.065Z,101216.25
2023-01-27T17:46:19.523Z,101214.38
2023-01-27T17:50:24.607Z,101216.28
2023-01-27T17:54:30.220Z,101222.31
2023-01-27T17:58:32.374Z,101218.09
2023-01-27T18:02:39.025Z,101221.59
2023-01-27T18:06:42.633Z,101223.25
2023-01-27T18:10:44.834Z,101224.97
2023-01-27T18:14:46.941Z,101228.50
2023-01-27T18:18:49.872Z,101224.19
2023-01-27T18:22:52.046Z,101226.00
2023-01-27T18:26:54.104Z,101219.06
2023-01-27T18:30:56.186Z,101220.78
2023-01-27T18:34:58.921Z,101226.78
2023-01-27T18:39:29.001Z,101231.13
2023-01-27T18:43:30.871Z,101231.22
2023-01-27T18:47:34.897Z,101238.94
2023-01-27T18:51:36.834Z,101244.91
2023-01-27T18:55:39.176Z,101237.25
2023-01-27T18:59:41.264Z,101250.19
2023-01-27T19:03:42.989Z,101250.22
2023-01-27T19:07:45.149Z,101264.78
2023-01-27T19:11:46.980Z,101255.22
2023-01-27T19:15:51.505Z,101262.16
2023-01-27T19:19:54.455Z,101262.19
2023-01-27T19:23:56.724Z,101273.44
2023-01-27T19:28:04.421Z,101274.41
2023-01-27T19:32:07.170Z,101272.59
2023-01-27T19:36:12.046Z,101283.81
2023-01-27T19:40:17.770Z,101283.78
2023-01-27T19:44:19.879Z,101294.91
2023-01-27T19:48:24.433Z,101292.31
2023-01-27T19:52:26.637Z,101287.13
2023-01-27T19:56:32.558Z,101291.41
2023-01-27T20:00:36.873Z,101288.94
2023-01-27T20:04:38.920Z,101290.59
2023-01-27T20:08:40.943Z,101295.72
2023-01-27T20:12:43.391Z,101299.16
2023-01-27T20:16:46.508Z,101309.53
2023-01-27T20:20:48.448Z,101318.09
2023-01-27T20:24:50.708Z,101321.59
2023-01-27T20:28:52.673Z,101319.03
2023-01-27T20:32:56.537Z,101325.88
2023-01-27T20:36:58.663Z,101319.91
2023-01-27T20:41:09.056Z,101320.78
2023-01-27T20:45:12.264Z,101319.00
2023-01-27T20:49:14.466Z,101320.72
2023-01-27T20:53:16.405Z,101327.59
2023-01-27T20:57:20.998Z,101328.53
2023-01-27T21:01:23.844Z,101319.97
2023-01-27T21:05:27.011Z,101321.69
2023-01-27T21:09:28.961Z,101319.09
2023-01-27T21:13:31.112Z,101316.50
2023-01-27T21:17:33.082Z,101319.03
2023-01-27T21:21:35.074Z,101319.91
2023-01-27T21:25:37.359Z,101319.94
2023-01-27T21:29:40.754Z,101313.94
2023-01-27T21:33:48.471Z,101315.63
2023-01-27T21:37:50.618Z,101318.19
2023-01-27T21:41:52.538Z,101310.41
2023-01-27T21:46:01.185Z,101313.06
2023-01-27T21:50:04.385Z,101308.75
2023-01-27T21:54:06.544Z,101308.78
2023-01-27T21:58:08.196Z,101306.22
2023-01-27T22:02:15.573Z,101305.28
2023-01-27T22:06:17.373Z,101298.44
2023-01-27T22:10:23.258Z,101295.91
2023-01-27T22:14:25.222Z,101296.72
2023-01-27T22:18:27.516Z,101296.72
2023-01-27T22:22:29.123Z,101283.78
2023-01-27T22:26:31.116Z,101292.47
2023-01-27T22:30:33.220Z,101291.63
2023-01-27T22:34:35.267Z,101284.81
2023-01-27T22:38:38.745Z,101283.91
2023-01-27T22:42:40.984Z,101286.50
2023-01-27T22:46:43.865Z,101289.88
2023-01-27T22:50:45.905Z,101288.22
2023-01-27T22:54:48.103Z,101284.75
2023-01-27T22:58:50.146Z,101273.59
2023-01-27T23:02:52.125Z,101276.16
2023-01-27T23:06:54.200Z,101280.53
2023-01-27T23:11:00.991Z,101281.38
2023-01-27T23:15:03.059Z,101273.63
2023-01-27T23:19:05.130Z,101273.63
2023-01-27T23:23:08.561Z,101276.22
2023-01-27T23:27:10.549Z,101275.34
2023-01-27T23:31:13.662Z,101278.75
2023-01-27T23:35:15.934Z,101273.59
2023-01-27T23:39:18.152Z,101274.50
2023-01-27T23:43:23.820Z,101264.19
2023-01-27T23:47:25.834Z,101269.38
2023-01-27T23:51:27.777Z,101271.91
2023-01-27T23:55:29.820Z,101268.50
2023-01-27T23:59:31.826Z,101271.09
